Sunrise Springs, Arizona
Current Conditions -  °F | °C
As of 12:53 PM on Sunday 21 Dec 2014 (Local Time) from KRQE Reporting Station
Clear Clear  
Wind Chill: 42°   Ceiling: Unl
Heat Index: 47°   Visibility: 10mi
Dew Point: 28°   Wind: 10mph
Humidity: 48%   Direction: 290°WNW
Pressure: 30.04"   Gusts: NA
Location:  35.6053°N, 109.458°W
Report Text: KRQE 211953Z AUTO 29009KT 10SM CLR 08/M02 A3004 RMK AO2 SLP138 T00831022 TSNO
Loading
Personal Weather Stations






























Interactive Weather Map New forecast layout! Learn more

10-Day Weather Forecast

Advertisements
Track Severe Weather on mobile